SJOP weather

Minas da Conceição Heliport
Itabira, Minas Gerais, Brazil

Public forecast

Using degrees Celsius for public forecast. Weather courtesy of forecast.io.

METAR (pilot weather report)

Closest report is Lagoa Santa Airport, 36.4 nm (67.4 km) W. Retrieved 2019/07/23 14:00 UTC (41 minutes ago):

SBLS 231400Z VRB05KT 9999 FEW027 21/10 Q1026

TAF (pilot weather forecast)

Closest forecast is Tancredo Neves International Airport, 40.7 nm (75.3 km) W. Retrieved 2019/07/23 12:33 UTC (2 hours ago):

TAF SBCF 231000Z 2312/2412 11007KT CAVOK TX22/2317Z TN11/2408Z BECMG 2314/2316 06008KT 9999 SCT030 BECMG 2321/2323 09007KT CAVOK RMK PFN